Corea, Maine
Current Conditions -  °F | °C
As of 11:55 AM on Friday 24 Oct 2014 (Local Time) from KBHB Reporting Station
Overcast Overcast  
Wind Chill: 44°   Ceiling: 1100
Heat Index: 48°   Visibility: 10mi
Dew Point: 46°   Wind: 9mph
Humidity: 93%   Direction: 360°N
Pressure: 29.62"   Gusts: 20mph
Location:  44.4°N, 67.98°W
Report Text: KBHB 241555Z AUTO 36008G17KT 10SM OVC011 09/08 A2962 RMK AO1
Loading
Personal Weather Stations






























Interactive Weather Map
Tropical Storm Tracking
New forecast layout! Learn more

10-Day Weather Forecast

Advertisements
Track Severe Weather on mobile